createdAt,value
2022-08-14T00:01:58.777Z,2.51
2022-08-14T00:04:32.067Z,2.65
2022-08-14T00:07:06.815Z,2.21
2022-08-14T00:09:39.897Z,2.53
2022-08-14T00:12:24.134Z,2.31
2022-08-14T00:14:55.039Z,2.46
2022-08-14T00:17:22.667Z,2.47
2022-08-14T00:19:51.801Z,2.47
2022-08-14T00:22:44.370Z,2.49
2022-08-14T00:25:10.622Z,2.55
2022-08-14T00:27:38.413Z,2.29
2022-08-14T00:30:08.546Z,2.28
2022-08-14T00:32:52.498Z,2.35
2022-08-14T00:35:36.850Z,2.33
2022-08-14T00:38:12.480Z,2.37
2022-08-14T00:40:39.842Z,2.36
2022-08-14T00:43:14.985Z,2.26
2022-08-14T00:45:42.900Z,2.61
2022-08-14T00:48:34.753Z,2.52
2022-08-14T00:51:04.861Z,2.44
2022-08-14T00:53:34.220Z,2.40
2022-08-14T00:56:01.421Z,2.56
2022-08-14T00:58:34.740Z,2.48
2022-08-14T01:01:07.330Z,2.40
2022-08-14T01:03:34.660Z,2.41
2022-08-14T01:06:02.024Z,2.19
2022-08-14T01:08:52.043Z,2.41
2022-08-14T01:11:31.499Z,2.20
2022-08-14T01:14:25.220Z,2.31
2022-08-14T01:16:53.124Z,2.28
2022-08-14T01:19:27.419Z,2.36
2022-08-14T01:22:26.908Z,2.15
2022-08-14T01:25:04.075Z,2.07
2022-08-14T01:27:56.826Z,2.23
2022-08-14T01:30:25.541Z,2.28
2022-08-14T01:32:53.660Z,2.13
2022-08-14T01:36:03.430Z,2.06
2022-08-14T01:38:10.271Z,1.96
2022-08-14T01:40:41.687Z,1.88
2022-08-14T01:43:11.495Z,1.94
2022-08-14T01:45:40.859Z,2.21
2022-08-14T01:48:13.293Z,1.96
2022-08-14T01:50:42.134Z,2.12
2022-08-14T01:53:11.099Z,2.05
2022-08-14T01:55:38.960Z,2.04
2022-08-14T01:58:19.354Z,2.08
2022-08-14T02:00:50.024Z,2.03
2022-08-14T02:03:17.299Z,2.12
2022-08-14T02:05:44.403Z,2.37
2022-08-14T02:08:12.981Z,2.22
2022-08-14T02:10:46.582Z,2.52
2022-08-14T02:13:16.941Z,2.49
2022-08-14T02:15:44.840Z,2.27
2022-08-14T02:18:15.303Z,2.47
2022-08-14T02:20:42.882Z,2.32
2022-08-14T02:23:11.398Z,2.48
2022-08-14T02:25:40.178Z,2.59
2022-08-14T02:28:23.959Z,2.41
2022-08-14T02:30:54.979Z,2.33
2022-08-14T02:33:22.614Z,2.41
2022-08-14T02:35:53.354Z,2.52
2022-08-14T02:38:30.204Z,2.41
2022-08-14T02:41:08.990Z,2.54
2022-08-14T02:43:46.490Z,2.48
2022-08-14T02:46:20.537Z,2.33
2022-08-14T02:49:03.986Z,2.30
2022-08-14T02:51:34.845Z,2.24
2022-08-14T02:54:05.679Z,2.38
2022-08-14T02:57:14.382Z,2.20
2022-08-14T02:59:24.878Z,2.58
2022-08-14T03:01:56.379Z,2.61
2022-08-14T03:04:25.294Z,2.78
2022-08-14T03:07:06.328Z,2.55
2022-08-14T03:10:25.142Z,2.84
2022-08-14T03:12:30.842Z,2.29
2022-08-14T03:15:00.999Z,2.76
2022-08-14T03:17:31.996Z,2.51
2022-08-14T03:20:11.049Z,2.44
2022-08-14T03:22:38.758Z,2.36
2022-08-14T03:25:09.984Z,2.36
2022-08-14T03:27:47.715Z,2.37
2022-08-14T03:30:15.841Z,2.21
2022-08-14T03:32:51.457Z,2.37
2022-08-14T03:35:18.818Z,2.47
2022-08-14T03:39:13.129Z,2.34
2022-08-14T03:40:34.720Z,2.24
2022-08-14T03:43:03.997Z,2.08
2022-08-14T03:45:35.524Z,2.29
2022-08-14T03:48:04.080Z,2.21
2022-08-14T03:50:38.319Z,2.07
2022-08-14T03:53:05.958Z,2.17
2022-08-14T03:55:34.758Z,2.23
2022-08-14T03:58:03.458Z,2.18
2022-08-14T04:00:43.107Z,2.13
2022-08-14T04:03:18.255Z,2.22
2022-08-14T04:05:51.000Z,2.21
2022-08-14T04:08:22.949Z,2.39
2022-08-14T04:11:01.261Z,2.22
2022-08-14T04:13:33.963Z,2.25
2022-08-14T04:16:04.787Z,2.23
2022-08-14T04:18:33.919Z,2.46
2022-08-14T04:21:01.700Z,2.32
2022-08-14T04:23:33.399Z,2.40
2022-08-14T04:26:08.283Z,2.28
2022-08-14T04:29:08.307Z,2.26
2022-08-14T04:32:57.640Z,2.27
2022-08-14T04:34:24.119Z,2.18
2022-08-14T04:36:55.007Z,2.27
2022-08-14T04:39:22.587Z,2.36
2022-08-14T04:41:50.839Z,2.27
2022-08-14T04:44:36.222Z,2.43
2022-08-14T04:47:04.797Z,2.30
2022-08-14T04:49:33.618Z,2.36
2022-08-14T04:52:15.532Z,2.47
2022-08-14T04:54:50.718Z,2.25
2022-08-14T04:57:17.958Z,2.29
2022-08-14T04:59:47.859Z,2.21
2022-08-14T05:02:15.051Z,2.44
2022-08-14T05:04:45.031Z,2.23
2022-08-14T05:07:12.820Z,2.27
2022-08-14T05:09:43.887Z,2.47
2022-08-14T05:13:12.694Z,2.39
2022-08-14T05:15:04.081Z,2.50
2022-08-14T05:17:43.821Z,2.45
2022-08-14T05:21:10.992Z,2.55
2022-08-14T05:22:59.398Z,2.56
2022-08-14T05:25:30.759Z,2.45
2022-08-14T05:28:16.153Z,2.59
2022-08-14T05:30:45.899Z,2.65
2022-08-14T05:33:14.639Z,2.74
2022-08-14T05:35:43.039Z,2.55
2022-08-14T05:38:30.660Z,2.87
2022-08-14T05:40:59.140Z,2.80
2022-08-14T05:43:40.833Z,2.77
2022-08-14T05:46:15.397Z,2.74
2022-08-14T05:48:43.538Z,2.70
2022-08-14T05:51:10.977Z,2.80
2022-08-14T05:53:42.402Z,2.49
2022-08-14T05:56:10.028Z,2.36
2022-08-14T05:58:41.051Z,2.59
2022-08-14T06:01:09.148Z,2.44
2022-08-14T06:03:40.114Z,2.71
2022-08-14T06:06:08.481Z,2.47
2022-08-14T06:08:41.297Z,2.53
2022-08-14T06:11:09.842Z,2.55
2022-08-14T06:13:45.415Z,2.75
2022-08-14T06:16:17.709Z,2.64
2022-08-14T06:18:51.777Z,2.67
2022-08-14T06:21:20.080Z,2.52
2022-08-14T06:23:49.292Z,2.67
2022-08-14T06:26:20.572Z,2.54
2022-08-14T06:28:52.111Z,2.37
2022-08-14T06:31:20.503Z,2.43
2022-08-14T06:35:02.970Z,2.41
2022-08-14T06:36:36.559Z,2.52
2022-08-14T06:39:04.219Z,2.72
2022-08-14T06:41:58.076Z,2.65
2022-08-14T06:44:32.394Z,2.56
2022-08-14T06:47:00.819Z,2.65
2022-08-14T06:49:30.178Z,2.60
2022-08-14T06:51:57.761Z,2.67
2022-08-14T06:54:31.184Z,2.42
2022-08-14T06:56:59.249Z,2.62
2022-08-14T06:59:26.505Z,2.57
2022-08-14T07:01:56.582Z,2.42
2022-08-14T07:04:24.470Z,2.50
2022-08-14T07:06:55.505Z,2.57
2022-08-14T07:09:25.779Z,2.42
2022-08-14T07:11:55.518Z,2.41
2022-08-14T07:14:23.598Z,2.54
2022-08-14T07:16:50.742Z,2.58
2022-08-14T07:19:20.987Z,2.60
2022-08-14T07:21:48.897Z,2.27
2022-08-14T07:24:21.959Z,2.59
2022-08-14T07:26:53.541Z,2.61
2022-08-14T07:29:24.045Z,2.69
2022-08-14T07:31:53.625Z,2.45
2022-08-14T07:34:36.547Z,2.74
2022-08-14T07:37:07.738Z,2.41
2022-08-14T07:39:38.897Z,2.32
2022-08-14T07:42:10.700Z,2.45
2022-08-14T07:44:46.503Z,2.54
2022-08-14T07:47:17.839Z,2.48
2022-08-14T07:49:59.222Z,2.39
2022-08-14T07:52:31.103Z,2.55
2022-08-14T07:55:01.358Z,2.43
2022-08-14T07:57:28.537Z,2.56
2022-08-14T07:59:55.740Z,2.42
2022-08-14T08:02:23.959Z,2.28
2022-08-14T08:04:54.350Z,2.37
2022-08-14T08:07:30.015Z,2.51
2022-08-14T08:10:02.658Z,2.25
2022-08-14T08:12:32.087Z,2.50
2022-08-14T08:15:02.900Z,2.56
2022-08-14T08:17:38.716Z,2.66
2022-08-14T08:20:16.854Z,2.67
2022-08-14T08:22:49.767Z,2.57
2022-08-14T08:25:25.132Z,2.64
2022-08-14T08:28:01.398Z,2.85
2022-08-14T08:30:37.420Z,2.44
2022-08-14T08:33:12.321Z,2.32
2022-08-14T08:35:47.106Z,2.63
2022-08-14T08:39:17.706Z,2.62
2022-08-14T08:41:11.105Z,2.75
2022-08-14T08:43:46.193Z,2.66
2022-08-14T08:46:21.621Z,2.48
2022-08-14T08:51:30.961Z,2.74
2022-08-14T08:54:04.142Z,2.89
2022-08-14T08:56:44.881Z,2.65
2022-08-14T08:59:27.327Z,3.17
2022-08-14T09:02:01.184Z,2.92
2022-08-14T09:04:36.059Z,2.63
2022-08-14T09:07:13.062Z,2.79
2022-08-14T09:09:54.019Z,2.97
2022-08-14T09:12:31.638Z,2.72
2022-08-14T09:15:01.855Z,2.86
2022-08-14T09:17:29.680Z,2.80
2022-08-14T09:19:57.743Z,2.85
2022-08-14T09:22:35.348Z,2.85
2022-08-14T09:25:07.380Z,2.70
2022-08-14T09:27:37.942Z,2.56
2022-08-14T09:30:30.744Z,2.78
2022-08-14T09:33:30.069Z,2.94
2022-08-14T09:36:18.529Z,2.73
2022-08-14T09:38:51.700Z,2.75
2022-08-14T09:42:20.151Z,2.76
2022-08-14T09:44:42.929Z,2.68
2022-08-14T09:47:14.630Z,2.91
2022-08-14T09:49:42.021Z,2.73
2022-08-14T09:52:32.834Z,2.92
2022-08-14T09:54:59.099Z,2.97
2022-08-14T09:57:37.523Z,3.08
2022-08-14T10:00:29.561Z,3.00
2022-08-14T10:02:58.435Z,3.30
2022-08-14T10:05:31.719Z,3.51
2022-08-14T10:07:59.107Z,3.20
2022-08-14T10:10:34.422Z,3.27
2022-08-14T10:13:04.041Z,3.77
2022-08-14T10:15:45.439Z,3.48
2022-08-14T10:18:18.183Z,3.82
2022-08-14T10:20:59.299Z,3.96
2022-08-14T10:23:33.764Z,3.75
2022-08-14T10:26:06.025Z,3.78
2022-08-14T10:29:03.522Z,3.70
2022-08-14T10:31:30.647Z,3.61
2022-08-14T10:34:14.068Z,3.85
2022-08-14T10:36:47.524Z,3.54
2022-08-14T10:39:20.022Z,3.84
2022-08-14T10:41:53.707Z,3.81
2022-08-14T10:44:24.059Z,3.71
2022-08-14T10:47:37.942Z,3.65
2022-08-14T10:49:44.721Z,3.70
2022-08-14T10:52:22.086Z,3.60
2022-08-14T10:54:49.340Z,4.10
2022-08-14T10:57:25.462Z,3.96
2022-08-14T10:59:56.520Z,4.13
2022-08-14T11:02:44.972Z,4.07
2022-08-14T11:05:18.201Z,4.10
2022-08-14T11:07:59.787Z,4.39
2022-08-14T11:10:40.871Z,4.10
2022-08-14T11:13:15.324Z,4.57
2022-08-14T11:15:43.171Z,4.46
2022-08-14T11:18:20.427Z,4.19
2022-08-14T11:21:00.221Z,4.20
2022-08-14T11:23:38.247Z,4.15
2022-08-14T11:26:10.381Z,4.28
2022-08-14T11:28:47.628Z,5.01
2022-08-14T11:31:20.539Z,4.63
2022-08-14T11:33:53.460Z,4.27
2022-08-14T11:36:24.299Z,4.47
2022-08-14T11:39:19.160Z,4.38
2022-08-14T11:42:01.420Z,4.56
2022-08-14T11:44:48.782Z,4.54
2022-08-14T11:47:20.781Z,4.31
2022-08-14T11:49:51.953Z,4.37
2022-08-14T11:52:19.604Z,4.44
2022-08-14T11:54:58.453Z,4.51
2022-08-14T11:57:26.658Z,4.77
2022-08-14T12:00:05.573Z,4.79
2022-08-14T12:03:03.113Z,4.20
2022-08-14T12:05:38.004Z,3.88
2022-08-14T12:08:13.461Z,3.99
2022-08-14T12:10:43.441Z,3.44
2022-08-14T12:13:12.549Z,3.32
2022-08-14T12:15:45.030Z,3.17
2022-08-14T12:18:19.343Z,3.37
2022-08-14T12:20:52.686Z,3.20
2022-08-14T12:23:23.282Z,3.09
2022-08-14T12:26:31.943Z,3.18
2022-08-14T12:28:59.313Z,2.92
2022-08-14T12:31:27.484Z,3.02
2022-08-14T12:34:10.143Z,3.01
2022-08-14T12:36:39.539Z,2.73
2022-08-14T12:39:19.912Z,2.67
2022-08-14T12:41:53.789Z,2.86
2022-08-14T12:44:31.341Z,2.93
2022-08-14T12:47:07.419Z,2.90
2022-08-14T12:49:34.801Z,3.05
2022-08-14T12:52:09.319Z,3.14
2022-08-14T12:54:57.577Z,3.02
2022-08-14T12:57:38.804Z,3.24
2022-08-14T13:00:23.079Z,3.09
2022-08-14T13:02:54.947Z,3.31
2022-08-14T13:05:27.480Z,2.99
2022-08-14T13:07:56.558Z,3.00
2022-08-14T13:10:52.062Z,3.32
2022-08-14T13:13:16.121Z,3.01
2022-08-14T13:15:44.603Z,3.49
2022-08-14T13:18:15.651Z,3.20
2022-08-14T13:20:51.353Z,3.02
2022-08-14T13:23:31.704Z,3.16
2022-08-14T13:26:01.137Z,3.03
2022-08-14T13:28:33.657Z,3.02
2022-08-14T13:31:02.979Z,3.00
2022-08-14T13:33:36.922Z,2.92
2022-08-14T13:36:09.842Z,2.85
2022-08-14T13:38:42.900Z,2.71
2022-08-14T13:41:11.028Z,2.90
2022-08-14T13:43:49.443Z,2.89
2022-08-14T13:46:27.947Z,2.86
2022-08-14T13:48:55.741Z,2.90
2022-08-14T13:51:35.701Z,3.17
2022-08-14T13:54:10.722Z,2.69
2022-08-14T13:56:40.922Z,2.75
2022-08-14T13:59:10.709Z,2.73
2022-08-14T14:01:43.422Z,2.77
2022-08-14T14:04:19.268Z,2.93
2022-08-14T14:06:49.421Z,2.93
2022-08-14T14:09:26.290Z,2.94
2022-08-14T14:12:00.462Z,2.79
2022-08-14T14:14:44.673Z,2.90
2022-08-14T14:17:13.143Z,2.72
2022-08-14T14:19:42.564Z,2.93
2022-08-14T14:22:12.820Z,2.90
2022-08-14T14:25:01.404Z,3.06
2022-08-14T14:27:40.584Z,3.19
2022-08-14T14:30:46.548Z,3.05
2022-08-14T14:33:04.352Z,3.13
2022-08-14T14:35:38.564Z,3.05
2022-08-14T14:38:09.021Z,2.90
2022-08-14T14:40:53.106Z,3.04
2022-08-14T14:43:25.401Z,3.06
2022-08-14T14:45:56.141Z,2.88
2022-08-14T14:48:28.454Z,2.69
2022-08-14T14:50:58.284Z,2.76
2022-08-14T14:53:27.081Z,2.92
2022-08-14T14:56:47.804Z,2.81
2022-08-14T14:58:46.050Z,3.19
2022-08-14T15:01:13.577Z,2.99
2022-08-14T15:03:41.200Z,2.99
2022-08-14T15:06:09.119Z,3.11
2022-08-14T15:08:57.047Z,2.91
2022-08-14T15:11:30.275Z,3.20
2022-08-14T15:13:58.581Z,2.94
2022-08-14T15:16:27.462Z,2.64
2022-08-14T15:18:55.004Z,2.87
2022-08-14T15:21:22.919Z,3.17
2022-08-14T15:23:50.225Z,3.13
2022-08-14T15:26:24.000Z,3.16
2022-08-14T15:29:03.141Z,3.14
2022-08-14T15:31:32.543Z,3.15
2022-08-14T15:34:45.806Z,3.27
2022-08-14T15:36:49.301Z,2.96
2022-08-14T15:39:17.186Z,3.18
2022-08-14T15:41:45.253Z,2.92
2022-08-14T15:44:25.474Z,2.95
2022-08-14T15:46:55.178Z,2.92
2022-08-14T15:49:22.641Z,3.01
2022-08-14T15:51:51.039Z,2.74
2022-08-14T15:54:21.881Z,3.21
2022-08-14T15:56:57.640Z,3.21
2022-08-14T15:59:28.001Z,3.25
2022-08-14T16:01:55.860Z,3.08
2022-08-14T16:04:23.811Z,3.37
2022-08-14T16:06:54.548Z,3.39
2022-08-14T16:09:22.576Z,3.43
2022-08-14T16:11:53.537Z,3.28
2022-08-14T16:14:21.454Z,3.28
2022-08-14T16:17:00.596Z,3.29
2022-08-14T16:19:30.250Z,3.60
2022-08-14T16:22:57.408Z,3.28
2022-08-14T16:25:02.570Z,3.56
2022-08-14T16:27:39.228Z,3.24
2022-08-14T16:30:11.541Z,2.89
2022-08-14T16:35:42.331Z,3.23
2022-08-14T16:38:46.519Z,3.40
2022-08-14T16:41:10.799Z,3.07
2022-08-14T16:43:40.422Z,3.65
2022-08-14T16:46:08.461Z,4.39
2022-08-14T16:48:57.980Z,4.08
2022-08-14T16:51:24.400Z,4.13
2022-08-14T16:53:52.379Z,4.10
2022-08-14T16:56:25.623Z,3.88
2022-08-14T16:59:07.359Z,3.48
2022-08-14T17:01:36.645Z,3.36
2022-08-14T17:04:07.881Z,3.83
2022-08-14T17:06:45.481Z,4.12
2022-08-14T17:09:28.322Z,3.55
2022-08-14T17:11:59.945Z,3.41
2022-08-14T17:14:48.925Z,3.40
2022-08-14T17:17:16.303Z,3.62
2022-08-14T17:19:44.999Z,3.44
2022-08-14T17:22:23.216Z,3.36
2022-08-14T17:25:03.138Z,3.47
2022-08-14T17:27:30.620Z,3.47
2022-08-14T17:29:58.044Z,3.38
2022-08-14T17:32:56.736Z,3.71
2022-08-14T17:35:26.783Z,3.88
2022-08-14T17:38:39.184Z,3.80
2022-08-14T17:41:17.119Z,3.69
2022-08-14T17:43:44.280Z,3.40
2022-08-14T17:46:37.860Z,3.72
2022-08-14T17:49:15.336Z,4.02
2022-08-14T17:51:58.841Z,3.74
2022-08-14T17:54:34.716Z,4.15
2022-08-14T17:57:10.484Z,3.81
2022-08-14T17:59:43.466Z,3.49
2022-08-14T18:02:16.822Z,3.57
2022-08-14T18:04:46.027Z,3.68
2022-08-14T18:08:00.218Z,3.84
2022-08-14T18:10:52.642Z,3.88
2022-08-14T18:12:55.518Z,3.85
2022-08-14T18:15:35.436Z,3.96
2022-08-14T18:18:08.837Z,3.91
2022-08-14T18:21:39.880Z,3.62
2022-08-14T18:23:26.702Z,4.97
2022-08-14T18:25:58.847Z,4.16
2022-08-14T18:28:50.877Z,4.10
2022-08-14T18:31:42.362Z,3.85
2022-08-14T18:34:32.102Z,4.01
2022-08-14T18:37:14.280Z,4.10
2022-08-14T18:40:02.354Z,4.01
2022-08-14T18:42:44.142Z,3.67
2022-08-14T18:45:15.416Z,3.39
2022-08-14T18:48:14.175Z,3.34
2022-08-14T18:50:31.900Z,3.45
2022-08-14T18:53:06.945Z,3.40
2022-08-14T18:55:53.742Z,3.38
2022-08-14T18:58:31.485Z,3.33
2022-08-14T19:01:04.703Z,3.23
2022-08-14T19:03:55.720Z,3.30
2022-08-14T19:06:47.040Z,3.09
2022-08-14T19:09:51.560Z,2.96
2022-08-14T19:12:56.684Z,2.84
2022-08-14T19:15:28.141Z,2.61
2022-08-14T19:18:14.893Z,2.69
2022-08-14T19:20:49.086Z,2.67
2022-08-14T19:23:42.540Z,2.71
2022-08-14T19:26:36.040Z,3.14
2022-08-14T19:29:38.250Z,2.99
2022-08-14T19:32:37.569Z,2.96
2022-08-14T19:35:14.953Z,2.72
2022-08-14T19:37:47.772Z,2.78
2022-08-14T19:40:29.541Z,2.76
2022-08-14T19:42:58.354Z,2.73
2022-08-14T19:45:28.000Z,2.78
2022-08-14T19:47:57.810Z,2.77
2022-08-14T19:50:37.935Z,2.71
2022-08-14T19:53:16.537Z,2.79
2022-08-14T19:55:58.570Z,2.87
2022-08-14T19:58:38.221Z,2.72
2022-08-14T20:01:36.966Z,2.73
2022-08-14T20:04:45.237Z,2.72
2022-08-14T20:06:56.480Z,3.05
2022-08-14T20:11:08.058Z,3.36
2022-08-14T20:12:28.889Z,3.31
2022-08-14T20:15:10.264Z,3.62
2022-08-14T20:17:40.302Z,3.64
2022-08-14T20:20:30.452Z,3.68
2022-08-14T20:23:01.910Z,3.76
2022-08-14T20:25:37.286Z,3.83
2022-08-14T20:28:29.537Z,3.86
2022-08-14T20:31:13.680Z,4.13
2022-08-14T20:34:03.228Z,4.27
2022-08-14T20:36:32.043Z,4.07
2022-08-14T20:38:59.826Z,3.78
2022-08-14T20:41:27.468Z,3.71
2022-08-14T20:43:58.596Z,3.68
2022-08-14T20:46:31.092Z,3.67
2022-08-14T20:49:00.859Z,3.55
2022-08-14T20:51:36.761Z,3.45
2022-08-14T20:54:06.603Z,3.42
2022-08-14T20:56:35.583Z,3.60
2022-08-14T20:59:17.552Z,3.51
2022-08-14T21:01:48.143Z,3.59
2022-08-14T21:04:27.220Z,3.66
2022-08-14T21:07:25.423Z,3.42
2022-08-14T21:10:06.620Z,3.37
2022-08-14T21:12:35.812Z,3.61
2022-08-14T21:15:11.148Z,3.81
2022-08-14T21:17:41.657Z,3.45
2022-08-14T21:20:25.404Z,3.79
2022-08-14T21:22:56.379Z,4.08
2022-08-14T21:25:24.277Z,4.09
2022-08-14T21:27:56.713Z,4.18
2022-08-14T21:30:41.829Z,4.04
2022-08-14T21:33:13.244Z,4.15
2022-08-14T21:35:41.886Z,3.93
2022-08-14T21:38:09.269Z,4.03
2022-08-14T21:40:51.532Z,3.73
2022-08-14T21:43:22.246Z,3.67
2022-08-14T21:45:53.924Z,4.01
2022-08-14T21:48:29.526Z,3.91
2022-08-14T21:51:01.047Z,3.36
2022-08-14T21:53:32.482Z,3.99
2022-08-14T21:56:00.400Z,3.61
2022-08-14T21:58:52.474Z,3.37
2022-08-14T22:01:14.694Z,3.74
2022-08-14T22:03:45.047Z,3.57
2022-08-14T22:06:19.486Z,3.62
2022-08-14T22:08:47.224Z,3.61
2022-08-14T22:11:21.091Z,3.33
2022-08-14T22:13:48.963Z,3.47
2022-08-14T22:16:59.946Z,3.77
2022-08-14T22:19:05.983Z,3.56
2022-08-14T22:21:37.884Z,3.83
2022-08-14T22:24:12.394Z,3.87
2022-08-14T22:26:59.622Z,4.07
2022-08-14T22:29:27.742Z,3.64
2022-08-14T22:31:54.962Z,3.81
2022-08-14T22:34:23.779Z,3.21
2022-08-14T22:36:51.342Z,2.82
2022-08-14T22:40:15.325Z,2.97
2022-08-14T22:42:21.315Z,2.92
2022-08-14T22:44:56.482Z,2.81
2022-08-14T22:47:25.315Z,3.38
2022-08-14T22:50:32.386Z,2.92
2022-08-14T22:52:49.554Z,3.27
2022-08-14T22:55:17.281Z,2.92
2022-08-14T22:57:44.622Z,2.94
2022-08-14T23:00:17.113Z,3.03
2022-08-14T23:02:45.305Z,3.07
2022-08-14T23:05:15.267Z,3.00
2022-08-14T23:08:58.250Z,2.93
2022-08-14T23:10:32.146Z,2.96
2022-08-14T23:13:04.367Z,3.05
2022-08-14T23:15:31.882Z,2.98
2022-08-14T23:17:59.751Z,2.88
2022-08-14T23:20:32.721Z,2.90
2022-08-14T23:23:00.303Z,2.83
2022-08-14T23:25:57.977Z,2.70
2022-08-14T23:28:33.460Z,2.99
2022-08-14T23:31:05.764Z,2.97
2022-08-14T23:33:34.791Z,3.13
2022-08-14T23:36:04.540Z,3.09
2022-08-14T23:38:52.443Z,3.01
2022-08-14T23:41:21.979Z,2.92
2022-08-14T23:43:51.701Z,2.76
2022-08-14T23:46:21.139Z,3.08
2022-08-14T23:48:48.579Z,2.93
2022-08-14T23:51:20.106Z,3.11
2022-08-14T23:53:51.450Z,3.32
2022-08-14T23:56:31.726Z,3.24
2022-08-14T23:59:01.335Z,3.45
